»·PEaware :: UAL250 KSFO-KPDX

UAL250 :: KSFO-KPDX

FLIGHT INFORMATION

Flight Status: Arrived
Operator:
United Airlines
More flights by this operator :: More flights under this callsign
Pilot: Andrew Jones (13363)
Aircraft: BOEING 757-200
(B752)
More flights by this aircraft type
Origin: KSFO San Francisco Intl
United States
Destination: KPDX Portland Intl
United States
More flights between these airports :: More routes between these airports
Route: CIITY3 GRTFL MACHU TMBRS2
File this flight plan on PilotEdge
Remarks:
Altitude:
(Current/Filed)
36,000ft
Speed:
(Current/Filed)
470kts
Departed: 10-Jan-17 05:19 PM
Arrived: 10-Jan-17 07:02 PM
Distance/Time
Traveled:
478nm/1:43
Distance/Time
To Go:
Arrived

Flight Plot

Page will automatically refresh every two minutes.


Map Options




Map Legend


Flown Route
Filed Route
Departure Airport
Arrival Airport
Navaid (VOR, NDB)
Fix

Horizontal Profiles

Position Reports

Time Latitude Longitude Heading Altitude Ground
Speed
10-Jan-17 16:30 37.618833 -122.385220 155 24ft 0kts
10-Jan-17 16:31 37.618833 -122.385220 155 24ft 0kts
10-Jan-17 16:32 37.618833 -122.385220 155 24ft 0kts
10-Jan-17 16:33 37.618833 -122.385220 155 24ft 0kts
10-Jan-17 16:34 37.618833 -122.385220 155 24ft 0kts
10-Jan-17 16:35 37.618833 -122.385220 155 24ft 0kts
10-Jan-17 16:36 37.618833 -122.385220 155 24ft 0kts
10-Jan-17 16:37 37.618833 -122.385220 155 24ft 0kts
10-Jan-17 16:38 37.618833 -122.385220 155 24ft 0kts
10-Jan-17 16:39 37.618833 -122.385220 155 24ft 0kts
10-Jan-17 16:40 37.618833 -122.385220 155 24ft 0kts
10-Jan-17 16:41 37.618833 -122.385220 155 24ft 0kts
10-Jan-17 16:42 37.618833 -122.385220 155 24ft 0kts
10-Jan-17 16:43 37.618833 -122.385220 155 25ft 0kts
10-Jan-17 16:44 37.618833 -122.385220 155 25ft 0kts
10-Jan-17 16:45 37.618833 -122.385220 155 24ft 0kts
10-Jan-17 16:46 37.618833 -122.385220 155 24ft 0kts
10-Jan-17 16:47 37.618833 -122.385220 155 24ft 0kts
10-Jan-17 16:48 37.618833 -122.385220 155 24ft 0kts
10-Jan-17 16:49 37.618833 -122.385220 155 24ft 0kts
10-Jan-17 16:50 37.618833 -122.385220 155 24ft 0kts
10-Jan-17 16:51 37.618833 -122.385220 155 24ft 0kts
10-Jan-17 16:52 37.618833 -122.385220 155 24ft 0kts
10-Jan-17 16:53 37.618833 -122.385220 155 24ft 0kts
10-Jan-17 16:54 37.619304 -122.385468 159 24ft 2kts
10-Jan-17 16:55 37.619887 -122.385466 163 24ft 1kts
10-Jan-17 16:56 37.620144 -122.385793 129 24ft 2kts
10-Jan-17 16:57 37.620333 -122.385464 30 24ft 0kts
10-Jan-17 16:58 37.620333 -122.385464 30 24ft 0kts
10-Jan-17 16:59 37.620333 -122.385464 30 24ft 0kts
10-Jan-17 17:00 37.620333 -122.385464 30 24ft 0kts
10-Jan-17 17:01 37.620333 -122.385464 30 24ft 0kts
10-Jan-17 17:02 37.620709 -122.384509 119 24ft 8kts
10-Jan-17 17:03 37.619402 -122.381574 117 24ft 11kts
10-Jan-17 17:04 37.619508 -122.379511 48 24ft 0kts
10-Jan-17 17:05 37.619508 -122.379511 48 24ft 0kts
10-Jan-17 17:06 37.619827 -122.379086 45 24ft 8kts
10-Jan-17 17:07 37.622228 -122.375675 48 24ft 4kts
10-Jan-17 17:08 37.622292 -122.375586 47 24ft 0kts
10-Jan-17 17:09 37.622292 -122.375586 47 24ft 0kts
10-Jan-17 17:10 37.622292 -122.375586 47 24ft 0kts
10-Jan-17 17:11 37.622292 -122.375586 47 24ft 0kts
10-Jan-17 17:12 37.622292 -122.375586 47 24ft 0kts
10-Jan-17 17:13 37.622292 -122.375586 47 24ft 0kts
10-Jan-17 17:14 37.622292 -122.375586 47 24ft 0kts
10-Jan-17 17:15 37.622292 -122.375586 47 24ft 0kts
10-Jan-17 17:16 37.622293 -122.375585 47 24ft 0kts
10-Jan-17 17:17 37.626223 -122.372729 27 24ft 25kts
10-Jan-17 17:18 37.626715 -122.371521 118 24ft 3kts
10-Jan-17 17:19 37.624775 -122.371718 206 25ft 41kts
10-Jan-17 17:20 37.593843 -122.392014 196 1059ft 152kts
10-Jan-17 17:21 37.578948 -122.348569 87 2247ft 216kts
10-Jan-17 17:22 37.571360 -122.276418 115 3794ft 280kts
10-Jan-17 17:23 37.544278 -122.184047 114 7365ft 294kts
10-Jan-17 17:24 37.589778 -122.079391 39 10539ft 338kts
10-Jan-17 17:25 37.668473 -121.990664 37 11864ft 419kts
10-Jan-17 17:26 37.749770 -121.928490 1 14374ft 411kts
10-Jan-17 17:27 37.854123 -121.957371 328 17139ft 391kts
10-Jan-17 17:28 37.955350 -122.011245 326 19643ft 403kts
10-Jan-17 17:29 38.059316 -122.068248 325 21887ft 415kts
10-Jan-17 17:30 38.165009 -122.126671 324 23730ft 428kts
10-Jan-17 17:31 38.272377 -122.185575 323 25478ft 435kts
10-Jan-17 17:32 38.389423 -122.233618 342 27057ft 475kts
10-Jan-17 17:33 38.522058 -122.247117 342 28454ft 483kts
10-Jan-17 17:34 38.655285 -122.261733 341 29756ft 487kts
10-Jan-17 17:35 38.788100 -122.275729 340 31356ft 480kts
10-Jan-17 17:36 38.919232 -122.288495 340 32757ft 474kts
10-Jan-17 17:37 39.049121 -122.302624 340 34082ft 469kts
10-Jan-17 17:38 39.173050 -122.316123 340 35092ft 465kts
10-Jan-17 17:39 39.299714 -122.329784 340 35873ft 463kts
10-Jan-17 17:40 39.426233 -122.343109 340 35871ft 461kts
10-Jan-17 17:41 39.553556 -122.356902 340 35853ft 460kts
10-Jan-17 17:42 39.679715 -122.370486 340 35853ft 460kts
10-Jan-17 17:43 39.805484 -122.384046 340 35854ft 458kts
10-Jan-17 17:44 39.931875 -122.397708 340 35775ft 456kts
10-Jan-17 17:45 40.057421 -122.411243 341 35772ft 456kts
10-Jan-17 17:46 40.177007 -122.424126 340 35770ft 454kts
10-Jan-17 17:47 40.301586 -122.437968 341 35770ft 453kts
10-Jan-17 17:48 40.427044 -122.450935 340 35769ft 451kts
10-Jan-17 17:49 40.550550 -122.465261 341 35769ft 451kts
10-Jan-17 17:50 40.674256 -122.478050 341 35769ft 449kts
10-Jan-17 17:51 40.798397 -122.490951 341 35770ft 450kts
10-Jan-17 17:52 40.921012 -122.503919 341 35769ft 448kts
10-Jan-17 17:53 41.043912 -122.515704 342 35747ft 449kts
10-Jan-17 17:54 41.161340 -122.527003 341 35715ft 446kts
10-Jan-17 17:55 41.283465 -122.541113 339 35714ft 440kts
10-Jan-17 17:56 41.403686 -122.559248 340 35714ft 441kts
10-Jan-17 17:57 41.525882 -122.574347 342 35687ft 444kts
10-Jan-17 17:58 41.649192 -122.581604 344 35687ft 446kts
10-Jan-17 17:59 41.771866 -122.589271 343 35685ft 444kts
10-Jan-17 18:00 41.894208 -122.596207 344 35686ft 444kts
10-Jan-17 18:01 42.015604 -122.604182 342 35685ft 440kts
10-Jan-17 18:02 42.133456 -122.612952 344 35686ft 440kts
10-Jan-17 18:03 42.255171 -122.620774 344 35687ft 442kts
10-Jan-17 18:04 42.376974 -122.627981 344 35687ft 439kts
10-Jan-17 18:05 42.498424 -122.636365 343 35685ft 437kts
10-Jan-17 18:06 42.619631 -122.646240 343 35660ft 437kts
10-Jan-17 18:07 42.738540 -122.654225 344 35679ft 436kts
10-Jan-17 18:08 42.858653 -122.662066 344 35633ft 435kts
10-Jan-17 18:09 42.978856 -122.670207 344 35623ft 434kts
10-Jan-17 18:10 43.098448 -122.678374 344 35622ft 432kts
10-Jan-17 18:11 43.214842 -122.686327 344 35626ft 433kts
10-Jan-17 18:12 43.334511 -122.693417 344 35625ft 431kts
10-Jan-17 18:13 43.450937 -122.701924 343 35119ft 412kts
10-Jan-17 18:14 43.561019 -122.710141 343 34207ft 410kts
10-Jan-17 18:15 43.673780 -122.718071 343 33250ft 409kts
10-Jan-17 18:16 43.787442 -122.726001 344 32218ft 410kts
10-Jan-17 18:17 43.901314 -122.733961 344 30705ft 412kts
10-Jan-17 18:18 44.015646 -122.741729 346 28197ft 413kts
10-Jan-17 18:19 44.120520 -122.748066 346 25473ft 399kts
10-Jan-17 18:20 44.228403 -122.743129 352 25188ft 404kts
10-Jan-17 18:21 44.340433 -122.732492 352 25090ft 405kts
10-Jan-17 18:22 44.450963 -122.720509 353 23724ft 397kts
10-Jan-17 18:23 44.558474 -122.708812 354 21840ft 379kts
10-Jan-17 18:24 44.649182 -122.701418 352 20666ft 344kts
10-Jan-17 18:25 44.736274 -122.693048 353 18816ft 332kts
10-Jan-17 18:26 44.768732 -122.689820 353 18167ft 329kts
10-Jan-17 18:27 44.846423 -122.681263 355 16728ft 324kts
10-Jan-17 18:28 44.916927 -122.674625 354 15488ft 318kts
10-Jan-17 18:29 44.973530 -122.669045 354 14916ft 294kts
10-Jan-17 18:30 45.021173 -122.664343 354 13934ft 288kts
10-Jan-17 18:31 45.092514 -122.657148 355 12753ft 284kts
10-Jan-17 18:32 45.154532 -122.650835 355 11668ft 281kts
10-Jan-17 18:33 45.223380 -122.643819 355 10042ft 281kts
10-Jan-17 18:34 45.295288 -122.667080 332 7603ft 267kts
10-Jan-17 18:35 45.362530 -122.703488 332 6913ft 255kts
10-Jan-17 18:36 45.427725 -122.738148 332 6884ft 256kts
10-Jan-17 18:37 45.492730 -122.774326 331 5584ft 249kts
10-Jan-17 18:38 45.555235 -122.809452 331 4299ft 241kts
10-Jan-17 18:39 45.597299 -122.869234 298 3287ft 210kts
10-Jan-17 18:40 45.631124 -122.936194 335 2979ft 211kts
10-Jan-17 18:41 45.684371 -122.911944 48 2984ft 211kts
10-Jan-17 18:42 45.675394 -122.830542 115 3007ft 241kts
10-Jan-17 18:43 45.644635 -122.749383 118 2087ft 221kts
10-Jan-17 18:44 45.619407 -122.684191 115 1054ft 145kts
10-Jan-17 18:45 45.601059 -122.636755 115 314ft 134kts
10-Jan-17 18:46 45.581445 -122.580811 111 937ft 250kts
10-Jan-17 18:47 45.551580 -122.491604 112 2243ft 225kts
10-Jan-17 18:48 45.504974 -122.452240 207 3498ft 257kts
10-Jan-17 18:49 45.457123 -122.511308 230 2647ft 227kts
10-Jan-17 18:50 45.464764 -122.605954 294 2780ft 274kts
10-Jan-17 18:51 45.488310 -122.702872 289 2991ft 255kts
10-Jan-17 18:52 45.523809 -122.794292 305 2992ft 269kts
10-Jan-17 18:53 45.556147 -122.878994 303 2986ft 216kts
10-Jan-17 18:54 45.593444 -122.947413 305 2992ft 219kts
10-Jan-17 18:55 45.647047 -122.952923 27 3008ft 211kts
10-Jan-17 18:56 45.678380 -122.903545 85 3013ft 175kts
10-Jan-17 18:57 45.675134 -122.829657 116 2981ft 209kts
10-Jan-17 18:58 45.649144 -122.761128 118 2284ft 182kts
10-Jan-17 18:59 45.627150 -122.704192 114 1326ft 136kts
10-Jan-17 19:00 45.609622 -122.658820 115 646ft 129kts
10-Jan-17 19:01 45.593032 -122.616168 112 41ft 103kts
10-Jan-17 19:02 45.589441 -122.604447 64 40ft 10kts
10-Jan-17 19:03 45.590168 -122.601533 26 40ft 11kts
10-Jan-17 19:04 45.591434 -122.599314 77 40ft 9kts
10-Jan-17 19:05 45.592609 -122.595377 119 40ft 16kts
10-Jan-17 19:06 45.590633 -122.590655 185 40ft 3kts
10-Jan-17 19:07 45.590098 -122.591012 207 40ft 0kts

Navigation Log

Ident Type
1. KSFO Airport
2. ORYAN Fix
3. SAHEY Fix
4. CIITY Fix
5. BCEEE Fix
6. GRTFL Fix
7. MACHU Fix
8. HUBUX Fix
9. IBALL Fix
10. AARON Fix
11. MOXEE Fix
12. PORTL Fix
13. TMBRS Fix
14. VANTZ Fix
15. FLOWR Fix
16. FFULL Fix
17. SSAIL Fix
18. MYCRO Fix
19. BBREW Fix
20. PUBBB Fix
21. KPDX Airport